createdAt,value
2019-03-06T00:00:50.060Z,19.00
2019-03-06T00:03:42.034Z,24.00
2019-03-06T00:06:52.062Z,22.67
2019-03-06T00:10:02.931Z,22.67
2019-03-06T00:21:58.752Z,22.00
2019-03-06T00:34:35.081Z,22.33
2019-03-06T00:37:37.498Z,21.67
2019-03-06T00:41:01.583Z,21.00
2019-03-06T00:43:52.127Z,17.33
2019-03-06T00:49:53.905Z,22.67
2019-03-06T00:52:03.426Z,23.00
2019-03-06T00:54:34.052Z,21.33
2019-03-06T00:57:45.646Z,21.67
2019-03-06T01:00:18.568Z,17.67
2019-03-06T01:02:50.085Z,20.33
2019-03-06T01:05:24.773Z,26.33
2019-03-06T01:08:02.699Z,25.67
2019-03-06T01:10:37.712Z,23.67
2019-03-06T01:14:02.157Z,24.33
2019-03-06T01:17:00.331Z,27.00
2019-03-06T01:22:27.245Z,24.67
2019-03-06T01:28:18.006Z,23.67
2019-03-06T01:30:51.210Z,31.33
2019-03-06T01:33:43.057Z,28.33
2019-03-06T01:36:33.950Z,29.00
2019-03-06T01:39:44.483Z,22.67
2019-03-06T01:42:33.245Z,27.67
2019-03-06T01:45:07.007Z,28.33
2019-03-06T01:47:39.591Z,31.33
2019-03-06T01:50:28.953Z,25.67
2019-03-06T01:56:01.130Z,23.33
2019-03-06T01:58:55.060Z,32.33
2019-03-06T02:02:04.752Z,32.67
2019-03-06T02:05:14.289Z,29.33
2019-03-06T02:07:45.090Z,32.00
2019-03-06T02:13:19.191Z,27.00
2019-03-06T02:18:50.658Z,32.25
2019-03-06T02:24:22.580Z,29.67
2019-03-06T02:29:58.332Z,30.33
2019-03-06T02:35:13.154Z,34.00
2019-03-06T02:40:55.537Z,26.33
2019-03-06T02:46:48.928Z,35.67
2019-03-06T02:49:24.871Z,33.50
2019-03-06T02:51:58.768Z,35.00
2019-03-06T02:58:05.126Z,29.33
2019-03-06T03:01:13.176Z,31.00
2019-03-06T03:04:19.879Z,35.33
2019-03-06T03:07:34.467Z,33.50
2019-03-06T03:10:27.785Z,33.00
2019-03-06T03:16:04.741Z,32.75
2019-03-06T03:21:56.625Z,32.00
2019-03-06T03:24:35.502Z,33.67
2019-03-06T03:27:47.338Z,34.75
2019-03-06T03:33:41.502Z,34.25
2019-03-06T03:39:15.031Z,34.00
2019-03-06T03:45:05.302Z,35.33
2019-03-06T03:51:37.375Z,37.33
2019-03-06T03:54:34.211Z,40.00
2019-03-06T04:00:26.564Z,32.67
2019-03-06T04:03:05.271Z,32.33
2019-03-06T04:05:35.961Z,30.00
2019-03-06T04:11:11.145Z,36.00
2019-03-06T04:14:03.586Z,33.33
2019-03-06T04:17:25.982Z,33.00
2019-03-06T04:19:56.385Z,33.25
2019-03-06T04:22:50.016Z,37.25
2019-03-06T04:25:21.280Z,35.00
2019-03-06T04:27:52.290Z,31.00
2019-03-06T04:30:46.050Z,30.33
2019-03-06T04:33:37.640Z,32.67
2019-03-06T04:36:52.709Z,35.33
2019-03-06T04:39:43.447Z,39.50
2019-03-06T04:42:17.555Z,33.00
2019-03-06T04:45:17.651Z,36.00
2019-03-06T04:48:20.997Z,34.00
2019-03-06T04:50:56.007Z,29.00
2019-03-06T04:53:34.467Z,30.25
2019-03-06T04:56:12.819Z,30.67
2019-03-06T04:58:50.133Z,29.33
2019-03-06T05:01:39.861Z,32.00
2019-03-06T05:04:28.936Z,30.67
2019-03-06T05:07:46.661Z,32.33
2019-03-06T05:13:41.619Z,37.00
2019-03-06T05:22:47.012Z,39.75
2019-03-06T05:25:18.969Z,39.00
2019-03-06T05:28:14.641Z,40.75
2019-03-06T05:30:58.845Z,42.00
2019-03-06T05:33:50.032Z,40.50
2019-03-06T05:37:07.061Z,36.25
2019-03-06T05:46:01.121Z,28.67
2019-03-06T05:48:52.741Z,24.33
2019-03-06T05:51:23.905Z,20.33
2019-03-06T05:53:59.152Z,24.00
2019-03-06T05:56:48.795Z,24.67
2019-03-06T06:05:43.007Z,19.67
2019-03-06T06:11:07.574Z,29.33
2019-03-06T06:13:43.341Z,22.67
2019-03-06T06:16:14.954Z,29.00
2019-03-06T06:19:08.633Z,34.67
2019-03-06T06:22:01.145Z,26.33
2019-03-06T06:25:04.622Z,22.67
2019-03-06T06:27:45.545Z,28.00
2019-03-06T06:33:29.074Z,19.67
2019-03-06T06:36:08.502Z,21.00
2019-03-06T06:42:20.303Z,26.00
2019-03-06T06:44:53.347Z,31.67
2019-03-06T06:47:24.785Z,33.50
2019-03-06T06:50:20.414Z,22.33
2019-03-06T07:00:21.557Z,29.33
2019-03-06T07:03:46.817Z,24.33
2019-03-06T07:06:56.848Z,30.67
2019-03-06T07:09:48.204Z,22.00
2019-03-06T07:13:38.060Z,23.50
2019-03-06T07:16:36.973Z,29.67
2019-03-06T07:19:48.235Z,22.67
2019-03-06T07:25:55.189Z,24.00
2019-03-06T07:28:44.298Z,31.00
2019-03-06T07:31:34.030Z,21.00
2019-03-06T07:34:23.246Z,25.00
2019-03-06T07:37:39.782Z,20.00
2019-03-06T07:40:49.431Z,25.33
2019-03-06T07:43:59.398Z,22.67
2019-03-06T07:47:08.249Z,27.50
2019-03-06T07:50:20.248Z,18.67
2019-03-06T07:53:49.002Z,21.00
2019-03-06T08:06:41.399Z,20.00
2019-03-06T08:10:02.945Z,19.00
2019-03-06T08:12:52.536Z,20.67
2019-03-06T08:22:45.287Z,17.33
2019-03-06T08:25:13.053Z,20.00
2019-03-06T08:34:49.844Z,13.67
2019-03-06T08:37:25.528Z,18.67
2019-03-06T08:40:14.488Z,19.67
2019-03-06T08:49:36.241Z,20.33
2019-03-06T08:52:35.824Z,18.33
2019-03-06T08:55:25.055Z,17.33
2019-03-06T08:58:34.993Z,19.33
2019-03-06T09:05:04.442Z,20.00
2019-03-06T09:07:47.945Z,17.67
2019-03-06T09:11:02.435Z,22.00
2019-03-06T09:13:48.213Z,17.00
2019-03-06T09:16:37.971Z,20.00
2019-03-06T09:19:27.585Z,22.00
2019-03-06T09:22:18.780Z,17.00
2019-03-06T09:28:31.561Z,14.00
2019-03-06T09:31:22.327Z,17.00
2019-03-06T09:34:32.293Z,15.00
2019-03-06T09:37:41.003Z,13.67
2019-03-06T09:40:49.154Z,16.67
2019-03-06T09:44:20.010Z,13.67
2019-03-06T09:47:31.179Z,13.67
2019-03-06T09:50:53.699Z,13.33
2019-03-06T09:53:31.688Z,16.67
2019-03-06T09:56:39.707Z,13.00
2019-03-06T09:59:23.234Z,15.00
2019-03-06T10:02:53.375Z,13.00
2019-03-06T10:06:01.995Z,9.33
2019-03-06T10:09:11.014Z,13.33
2019-03-06T10:12:12.721Z,13.00
2019-03-06T10:15:16.031Z,12.00
2019-03-06T10:18:21.456Z,10.00
2019-03-06T10:24:27.386Z,12.00
2019-03-06T10:30:02.651Z,11.00
2019-03-06T10:33:07.351Z,10.67
2019-03-06T10:36:08.295Z,11.00
2019-03-06T10:42:09.712Z,10.25
2019-03-06T10:45:22.924Z,10.00
2019-03-06T10:51:26.401Z,10.00
2019-03-06T11:06:39.853Z,8.33
2019-03-06T11:09:44.848Z,10.00
2019-03-06T11:15:23.866Z,4.80
2019-03-06T11:18:07.411Z,5.00
2019-03-06T11:23:52.359Z,7.00
2019-03-06T11:26:42.376Z,5.00
2019-03-06T11:41:15.949Z,4.00
2019-03-06T11:49:56.887Z,2.00
2019-03-06T11:58:58.091Z,4.00
2019-03-06T12:04:30.881Z,2.40
2019-03-06T12:07:45.225Z,2.00
2019-03-06T12:13:55.253Z,2.00
2019-03-06T12:16:31.269Z,2.20
2019-03-06T12:19:10.818Z,7.00
2019-03-06T12:21:53.771Z,2.40
2019-03-06T12:27:22.854Z,4.00
2019-03-06T12:30:16.602Z,4.20
2019-03-06T12:33:11.650Z,2.40
2019-03-06T12:36:03.350Z,4.20
2019-03-06T12:38:35.113Z,2.67
2019-03-06T12:41:58.909Z,4.60
2019-03-06T12:44:18.080Z,2.00
2019-03-06T12:52:52.221Z,4.00
2019-03-06T12:59:32.621Z,4.00
2019-03-06T13:02:07.230Z,2.40
2019-03-06T13:04:41.377Z,2.80
2019-03-06T13:07:38.334Z,4.00
2019-03-06T13:13:43.731Z,4.00
2019-03-06T13:16:25.211Z,6.00
2019-03-06T13:18:58.525Z,2.40
2019-03-06T13:25:10.849Z,4.40
2019-03-06T13:28:10.598Z,5.33
2019-03-06T13:31:07.162Z,4.00
2019-03-06T13:46:43.183Z,4.00
2019-03-06T13:49:19.571Z,7.00
2019-03-06T13:52:19.475Z,4.20
2019-03-06T13:55:11.156Z,4.00
2019-03-06T13:58:15.171Z,2.00
2019-03-06T14:07:58.962Z,2.00
2019-03-06T14:10:51.427Z,4.80
2019-03-06T14:13:36.839Z,3.20
2019-03-06T14:16:32.605Z,2.80
2019-03-06T14:19:43.757Z,4.00
2019-03-06T14:22:58.935Z,2.00
2019-03-06T14:25:56.210Z,2.40
2019-03-06T14:31:38.608Z,4.00
2019-03-06T14:37:36.493Z,3.60
2019-03-06T14:40:52.542Z,2.00
2019-03-06T14:44:05.608Z,4.00
2019-03-06T14:47:15.477Z,4.00
2019-03-06T14:49:49.476Z,4.67
2019-03-06T14:52:22.218Z,3.20
2019-03-06T14:55:34.227Z,3.00
2019-03-06T15:08:11.750Z,2.80
2019-03-06T15:10:58.219Z,4.00
2019-03-06T15:19:43.762Z,2.00
2019-03-06T15:22:49.190Z,2.00
2019-03-06T15:25:32.117Z,5.00
2019-03-06T15:41:37.102Z,4.00
2019-03-06T15:44:11.251Z,2.40
2019-03-06T15:46:48.759Z,2.80
2019-03-06T15:50:02.269Z,3.20
2019-03-06T15:53:05.582Z,2.00
2019-03-06T15:55:45.840Z,5.60
2019-03-06T15:58:50.113Z,4.00
2019-03-06T16:04:57.489Z,5.20
2019-03-06T16:20:53.950Z,7.67
2019-03-06T16:24:24.268Z,3.40
2019-03-06T16:26:57.942Z,6.00
2019-03-06T16:29:33.887Z,4.80
2019-03-06T16:32:29.196Z,3.40
2019-03-06T16:35:47.045Z,5.00
2019-03-06T16:38:58.222Z,6.00
2019-03-06T16:45:25.855Z,4.00
2019-03-06T16:48:16.974Z,4.00
2019-03-06T16:51:27.789Z,4.00
2019-03-06T16:54:36.617Z,4.33
2019-03-06T16:57:11.044Z,4.80
2019-03-06T16:59:43.231Z,4.80
2019-03-06T17:11:36.901Z,4.00
2019-03-06T17:14:30.573Z,6.00
2019-03-06T17:23:29.191Z,4.67
2019-03-06T17:26:20.726Z,9.00
2019-03-06T17:29:23.497Z,4.00
2019-03-06T17:31:55.204Z,4.00
2019-03-06T17:34:42.435Z,6.00
2019-03-06T17:37:04.390Z,8.33
2019-03-06T17:43:26.382Z,5.60
2019-03-06T17:46:17.396Z,4.67
2019-03-06T17:48:49.684Z,5.33
2019-03-06T17:51:25.853Z,5.40
2019-03-06T18:03:59.423Z,5.00
2019-03-06T18:06:47.331Z,5.67
2019-03-06T18:09:58.362Z,8.00
2019-03-06T18:15:38.483Z,7.20
2019-03-06T18:18:12.666Z,11.00
2019-03-06T18:20:50.593Z,7.33
2019-03-06T18:23:25.351Z,8.00
2019-03-06T18:29:23.099Z,8.00
2019-03-06T18:32:08.599Z,8.00
2019-03-06T18:35:12.761Z,8.33
2019-03-06T18:38:35.263Z,9.33
2019-03-06T18:41:18.392Z,9.60
2019-03-06T18:44:07.395Z,11.00
2019-03-06T18:46:43.748Z,8.67
2019-03-06T18:49:48.452Z,9.00
2019-03-06T18:53:00.095Z,9.00
2019-03-06T18:55:43.072Z,9.00
2019-03-06T18:58:45.126Z,12.67
2019-03-06T19:01:32.283Z,6.00
2019-03-06T19:07:07.119Z,9.67
2019-03-06T19:13:20.062Z,20.67
2019-03-06T19:16:06.143Z,10.33
2019-03-06T19:19:16.859Z,10.33
2019-03-06T19:22:07.595Z,14.00
2019-03-06T19:27:59.180Z,13.33
2019-03-06T19:30:47.939Z,26.67
2019-03-06T19:33:44.386Z,24.33
2019-03-06T19:36:34.549Z,21.00
2019-03-06T19:46:15.692Z,16.00
2019-03-06T19:48:36.868Z,11.00
2019-03-06T19:54:34.395Z,9.00
2019-03-06T20:03:29.805Z,9.00
2019-03-06T20:07:03.442Z,14.00
2019-03-06T20:09:35.608Z,15.67
2019-03-06T20:12:08.635Z,12.00
2019-03-06T20:15:21.470Z,12.67
2019-03-06T20:18:23.922Z,13.33
2019-03-06T20:21:32.820Z,11.00
2019-03-06T20:24:13.515Z,13.75
2019-03-06T20:30:26.082Z,11.00
2019-03-06T20:33:36.762Z,13.67
2019-03-06T20:40:29.724Z,12.33
2019-03-06T20:46:40.387Z,17.00
2019-03-06T20:49:13.845Z,13.33
2019-03-06T20:51:56.014Z,15.33
2019-03-06T20:54:28.069Z,15.33
2019-03-06T20:57:17.305Z,13.33
2019-03-06T21:02:47.956Z,17.00
2019-03-06T21:05:18.065Z,16.33
2019-03-06T21:08:08.564Z,16.00
2019-03-06T21:11:04.550Z,16.00
2019-03-06T21:17:03.006Z,13.00
2019-03-06T21:20:09.796Z,15.00
2019-03-06T21:23:00.378Z,14.33
2019-03-06T21:26:10.647Z,14.67
2019-03-06T21:29:34.807Z,13.00
2019-03-06T21:32:16.950Z,11.00
2019-03-06T21:35:00.619Z,9.33
2019-03-06T21:37:44.656Z,9.67
2019-03-06T21:40:04.642Z,11.67
2019-03-06T21:43:12.369Z,12.00
2019-03-06T21:48:47.916Z,11.00
2019-03-06T21:51:26.710Z,16.00
2019-03-06T22:00:38.135Z,14.00
2019-03-06T22:03:50.270Z,9.00
2019-03-06T22:06:23.541Z,8.67
2019-03-06T22:09:21.914Z,9.00
2019-03-06T22:11:55.361Z,10.00
2019-03-06T22:14:44.547Z,10.33
2019-03-06T22:23:38.675Z,8.60
2019-03-06T22:26:10.391Z,11.50
2019-03-06T22:29:03.249Z,9.00
2019-03-06T22:31:37.119Z,9.00
2019-03-06T22:34:31.665Z,8.00
2019-03-06T22:40:29.639Z,11.25
2019-03-06T22:43:20.376Z,9.00
2019-03-06T22:46:32.525Z,9.00
2019-03-06T22:49:28.774Z,9.00
2019-03-06T22:52:37.888Z,8.00
2019-03-06T22:55:57.092Z,14.00
2019-03-06T22:59:04.824Z,8.00
2019-03-06T23:02:08.778Z,7.33
2019-03-06T23:07:48.639Z,10.33
2019-03-06T23:10:58.875Z,8.33
2019-03-06T23:14:12.005Z,11.00
2019-03-06T23:17:09.735Z,9.00
2019-03-06T23:20:00.899Z,9.67
2019-03-06T23:25:45.774Z,8.00
2019-03-06T23:28:52.132Z,8.00
2019-03-06T23:35:20.042Z,13.00
2019-03-06T23:44:32.918Z,9.33
2019-03-06T23:47:40.810Z,11.00
2019-03-06T23:54:02.967Z,13.00
